Nanticoke, Canada
Current Conditions -  °F | °C
As of 2:00 PM on Friday 24 Oct 2014 (Local Time) from CYHM Reporting Station
Broken Clouds Broken Clouds  
Wind Chill: 44°   Ceiling: 22000
Heat Index: 48°   Visibility: 15mi
Dew Point: 41°   Wind: 9mph
Humidity: 76%   Direction: 260°W
Pressure: 30"   Gusts: NA
Location:  42.81°N, 80.07°W
Report Text: CYHM 241800Z 26008KT 15SM FEW160 FEW180 BKN220 09/05 A3000 RMK AC1AC1CS4 HALO SLP166
Loading
Personal Weather Stations






























Interactive Weather Map
Tropical Storm Tracking
New forecast layout! Learn more

10-Day Weather Forecast

Advertisements
Track Severe Weather on mobile